sensor_id;sensor_type;location;lat;lon;timestamp;pressure;altitude;pressure_sealevel;temperature;humidity
9521;BME280;4798;41.574;23.734;2022-10-13T00:01:08;96049.69;;;15.82;100.00
9521;BME280;4798;41.574;23.734;2022-10-13T00:03:38;96053.94;;;15.59;100.00
9521;BME280;4798;41.574;23.734;2022-10-13T00:06:09;96044.16;;;15.50;100.00
9521;BME280;4798;41.574;23.734;2022-10-13T00:08:39;96057.66;;;15.63;100.00
9521;BME280;4798;41.574;23.734;2022-10-13T00:11:10;96054.94;;;15.68;100.00
9521;BME280;4798;41.574;23.734;2022-10-13T00:13:39;96063.72;;;15.69;100.00
9521;BME280;4798;41.574;23.734;2022-10-13T00:16:08;96050.88;;;15.71;100.00
9521;BME280;4798;41.574;23.734;2022-10-13T00:18:37;96053.38;;;15.28;100.00
9521;BME280;4798;41.574;23.734;2022-10-13T00:21:06;96045.75;;;15.51;100.00
9521;BME280;4798;41.574;23.734;2022-10-13T00:23:35;96049.09;;;15.61;100.00
9521;BME280;4798;41.574;23.734;2022-10-13T00:26:08;96047.38;;;15.47;100.00
9521;BME280;4798;41.574;23.734;2022-10-13T00:28:36;96047.63;;;15.50;100.00
9521;BME280;4798;41.574;23.734;2022-10-13T00:31:14;96036.75;;;15.37;100.00
9521;BME280;4798;41.574;23.734;2022-10-13T00:33:42;96030.47;;;15.22;100.00
9521;BME280;4798;41.574;23.734;2022-10-13T00:36:11;96045.50;;;14.80;100.00
9521;BME280;4798;41.574;23.734;2022-10-13T00:38:39;96045.94;;;14.53;100.00
9521;BME280;4798;41.574;23.734;2022-10-13T00:41:09;95947.38;;;13.79;100.00
9521;BME280;4798;41.574;23.734;2022-10-13T00:43:51;96030.50;;;14.45;100.00
9521;BME280;4798;41.574;23.734;2022-10-13T00:46:21;96034.84;;;14.31;100.00
9521;BME280;4798;41.574;23.734;2022-10-13T00:48:50;96039.66;;;14.24;100.00
9521;BME280;4798;41.574;23.734;2022-10-13T00:51:21;96036.59;;;13.91;100.00
9521;BME280;4798;41.574;23.734;2022-10-13T00:53:52;96023.13;;;13.53;100.00
9521;BME280;4798;41.574;23.734;2022-10-13T00:56:24;96031.16;;;13.38;100.00
9521;BME280;4798;41.574;23.734;2022-10-13T00:58:54;95958.25;;;13.08;100.00
9521;BME280;4798;41.574;23.734;2022-10-13T01:01:23;96018.38;;;13.24;100.00
9521;BME280;4798;41.574;23.734;2022-10-13T01:03:51;96041.56;;;13.14;100.00
9521;BME280;4798;41.574;23.734;2022-10-13T01:06:19;96027.41;;;12.88;100.00
9521;BME280;4798;41.574;23.734;2022-10-13T01:08:49;96040.06;;;13.87;100.00
9521;BME280;4798;41.574;23.734;2022-10-13T01:11:37;96047.63;;;14.39;100.00
9521;BME280;4798;41.574;23.734;2022-10-13T01:14:17;96037.50;;;14.36;100.00
9521;BME280;4798;41.574;23.734;2022-10-13T01:16:54;96034.41;;;14.57;100.00
9521;BME280;4798;41.574;23.734;2022-10-13T01:19:46;96032.03;;;14.56;100.00
9521;BME280;4798;41.574;23.734;2022-10-13T01:22:31;96035.16;;;14.68;100.00
9521;BME280;4798;41.574;23.734;2022-10-13T01:25:14;96042.22;;;14.49;100.00
9521;BME280;4798;41.574;23.734;2022-10-13T01:27:58;96036.75;;;14.15;100.00
9521;BME280;4798;41.574;23.734;2022-10-13T01:30:35;96042.25;;;14.44;100.00
9521;BME280;4798;41.574;23.734;2022-10-13T01:33:21;96035.50;;;14.56;100.00
9521;BME280;4798;41.574;23.734;2022-10-13T01:36:08;96022.53;;;14.40;100.00
9521;BME280;4798;41.574;23.734;2022-10-13T01:38:44;96023.63;;;14.39;100.00
9521;BME280;4798;41.574;23.734;2022-10-13T01:41:19;96034.97;;;14.00;100.00
9521;BME280;4798;41.574;23.734;2022-10-13T01:43:54;96036.69;;;14.35;100.00
9521;BME280;4798;41.574;23.734;2022-10-13T01:46:28;96044.31;;;14.57;100.00
9521;BME280;4798;41.574;23.734;2022-10-13T01:48:59;96030.84;;;14.77;100.00
9521;BME280;4798;41.574;23.734;2022-10-13T01:51:30;96024.19;;;14.75;100.00
9521;BME280;4798;41.574;23.734;2022-10-13T01:53:59;96023.81;;;14.86;100.00
9521;BME280;4798;41.574;23.734;2022-10-13T01:56:28;96029.22;;;14.81;100.00
9521;BME280;4798;41.574;23.734;2022-10-13T01:58:59;96024.84;;;14.90;100.00
9521;BME280;4798;41.574;23.734;2022-10-13T02:01:41;96026.97;;;14.93;100.00
9521;BME280;4798;41.574;23.734;2022-10-13T02:04:22;96022.34;;;15.04;100.00
9521;BME280;4798;41.574;23.734;2022-10-13T02:06:58;96019.00;;;14.88;100.00
9521;BME280;4798;41.574;23.734;2022-10-13T02:09:34;96010.56;;;14.76;100.00
9521;BME280;4798;41.574;23.734;2022-10-13T02:12:10;96035.34;;;14.82;100.00
9521;BME280;4798;41.574;23.734;2022-10-13T02:14:41;96025.09;;;14.55;100.00
9521;BME280;4798;41.574;23.734;2022-10-13T02:17:14;96027.78;;;14.55;100.00
9521;BME280;4798;41.574;23.734;2022-10-13T02:19:43;96032.72;;;14.33;100.00
9521;BME280;4798;41.574;23.734;2022-10-13T02:22:14;96030.56;;;14.35;100.00
9521;BME280;4798;41.574;23.734;2022-10-13T02:24:43;96021.72;;;14.44;100.00
9521;BME280;4798;41.574;23.734;2022-10-13T02:27:11;96023.13;;;14.27;100.00
9521;BME280;4798;41.574;23.734;2022-10-13T02:29:50;95982.59;;;13.71;100.00
9521;BME280;4798;41.574;23.734;2022-10-13T02:32:21;96022.97;;;14.03;100.00
9521;BME280;4798;41.574;23.734;2022-10-13T02:34:50;96015.94;;;14.22;100.00
9521;BME280;4798;41.574;23.734;2022-10-13T02:37:18;96019.50;;;14.02;100.00
9521;BME280;4798;41.574;23.734;2022-10-13T02:39:47;96026.63;;;13.48;100.00
9521;BME280;4798;41.574;23.734;2022-10-13T02:42:15;96020.91;;;13.80;100.00
9521;BME280;4798;41.574;23.734;2022-10-13T02:44:46;96017.59;;;13.14;100.00
9521;BME280;4798;41.574;23.734;2022-10-13T02:47:15;96017.59;;;13.14;100.00
9521;BME280;4798;41.574;23.734;2022-10-13T02:49:44;96011.63;;;13.72;100.00
9521;BME280;4798;41.574;23.734;2022-10-13T02:52:13;95998.78;;;13.79;100.00
9521;BME280;4798;41.574;23.734;2022-10-13T02:54:41;96016.59;;;13.94;100.00
9521;BME280;4798;41.574;23.734;2022-10-13T02:57:09;96002.28;;;13.75;100.00
9521;BME280;4798;41.574;23.734;2022-10-13T02:59:37;96013.38;;;13.08;100.00
9521;BME280;4798;41.574;23.734;2022-10-13T03:02:06;96000.28;;;13.01;100.00
9521;BME280;4798;41.574;23.734;2022-10-13T03:04:34;95999.75;;;13.29;100.00
9521;BME280;4798;41.574;23.734;2022-10-13T03:07:04;96004.25;;;13.29;100.00
9521;BME280;4798;41.574;23.734;2022-10-13T03:09:33;96002.91;;;13.36;100.00
9521;BME280;4798;41.574;23.734;2022-10-13T03:12:01;95996.19;;;13.64;100.00
9521;BME280;4798;41.574;23.734;2022-10-13T03:14:30;95997.69;;;13.95;100.00
9521;BME280;4798;41.574;23.734;2022-10-13T03:16:59;95999.78;;;14.04;100.00
9521;BME280;4798;41.574;23.734;2022-10-13T03:19:27;96001.72;;;13.88;100.00
9521;BME280;4798;41.574;23.734;2022-10-13T03:21:56;96009.13;;;13.96;100.00
9521;BME280;4798;41.574;23.734;2022-10-13T03:24:26;96011.59;;;13.77;100.00
9521;BME280;4798;41.574;23.734;2022-10-13T03:26:54;96010.03;;;13.66;100.00
9521;BME280;4798;41.574;23.734;2022-10-13T03:29:22;96007.34;;;13.76;100.00
9521;BME280;4798;41.574;23.734;2022-10-13T03:31:51;96006.75;;;13.89;100.00
9521;BME280;4798;41.574;23.734;2022-10-13T03:34:19;96004.97;;;13.65;100.00
9521;BME280;4798;41.574;23.734;2022-10-13T03:36:47;96001.63;;;13.09;100.00
9521;BME280;4798;41.574;23.734;2022-10-13T03:39:15;96017.28;;;12.65;100.00
9521;BME280;4798;41.574;23.734;2022-10-13T03:41:45;96003.41;;;12.23;100.00
9521;BME280;4798;41.574;23.734;2022-10-13T03:44:14;96019.19;;;12.74;100.00
9521;BME280;4798;41.574;23.734;2022-10-13T03:46:42;95996.03;;;12.95;100.00
9521;BME280;4798;41.574;23.734;2022-10-13T03:49:11;96025.84;;;12.87;100.00
9521;BME280;4798;41.574;23.734;2022-10-13T03:51:39;96016.53;;;12.74;100.00
9521;BME280;4798;41.574;23.734;2022-10-13T03:54:09;96010.69;;;13.28;100.00
9521;BME280;4798;41.574;23.734;2022-10-13T03:56:39;96015.13;;;13.58;100.00
9521;BME280;4798;41.574;23.734;2022-10-13T03:59:11;96013.78;;;13.60;100.00
9521;BME280;4798;41.574;23.734;2022-10-13T04:01:42;96012.25;;;13.04;100.00
9521;BME280;4798;41.574;23.734;2022-10-13T04:04:11;96012.53;;;12.92;100.00
9521;BME280;4798;41.574;23.734;2022-10-13T04:06:39;95986.16;;;12.96;100.00
9521;BME280;4798;41.574;23.734;2022-10-13T04:09:07;96009.59;;;12.94;100.00
9521;BME280;4798;41.574;23.734;2022-10-13T04:11:36;96018.09;;;12.96;100.00
9521;BME280;4798;41.574;23.734;2022-10-13T04:14:04;96018.09;;;13.31;100.00
9521;BME280;4798;41.574;23.734;2022-10-13T04:16:34;96008.56;;;13.15;100.00
9521;BME280;4798;41.574;23.734;2022-10-13T04:19:04;96023.44;;;13.01;100.00
9521;BME280;4798;41.574;23.734;2022-10-13T04:21:33;96021.59;;;13.11;100.00
9521;BME280;4798;41.574;23.734;2022-10-13T04:24:02;96018.41;;;13.14;100.00
9521;BME280;4798;41.574;23.734;2022-10-13T04:26:33;96020.25;;;13.29;100.00
9521;BME280;4798;41.574;23.734;2022-10-13T04:29:03;96019.19;;;13.20;100.00
9521;BME280;4798;41.574;23.734;2022-10-13T04:31:33;96002.44;;;13.09;100.00
9521;BME280;4798;41.574;23.734;2022-10-13T04:34:02;96026.66;;;13.23;100.00
9521;BME280;4798;41.574;23.734;2022-10-13T04:36:30;96028.72;;;12.60;100.00
9521;BME280;4798;41.574;23.734;2022-10-13T04:38:58;96032.50;;;12.95;100.00
9521;BME280;4798;41.574;23.734;2022-10-13T04:41:27;96022.66;;;13.05;100.00
9521;BME280;4798;41.574;23.734;2022-10-13T04:43:55;96020.00;;;13.20;100.00
9521;BME280;4798;41.574;23.734;2022-10-13T04:46:26;96034.09;;;13.21;100.00
9521;BME280;4798;41.574;23.734;2022-10-13T04:48:56;96031.69;;;13.29;100.00
9521;BME280;4798;41.574;23.734;2022-10-13T04:51:25;96042.31;;;12.64;100.00
9521;BME280;4798;41.574;23.734;2022-10-13T04:53:54;96026.38;;;12.94;100.00
9521;BME280;4798;41.574;23.734;2022-10-13T04:56:23;96041.56;;;13.14;100.00
9521;BME280;4798;41.574;23.734;2022-10-13T04:58:52;96050.84;;;13.31;100.00
9521;BME280;4798;41.574;23.734;2022-10-13T05:01:22;95996.03;;;13.00;100.00
9521;BME280;4798;41.574;23.734;2022-10-13T05:03:50;96037.81;;;13.25;100.00
9521;BME280;4798;41.574;23.734;2022-10-13T05:06:22;96041.81;;;12.92;100.00
9521;BME280;4798;41.574;23.734;2022-10-13T05:08:51;96043.41;;;13.08;100.00
9521;BME280;4798;41.574;23.734;2022-10-13T05:11:19;96044.44;;;12.72;100.00
9521;BME280;4798;41.574;23.734;2022-10-13T05:13:48;96046.19;;;12.16;100.00
9521;BME280;4798;41.574;23.734;2022-10-13T05:16:21;96042.66;;;11.95;100.00
9521;BME280;4798;41.574;23.734;2022-10-13T05:18:53;96037.25;;;12.77;100.00
9521;BME280;4798;41.574;23.734;2022-10-13T05:21:24;96035.97;;;12.90;100.00
9521;BME280;4798;41.574;23.734;2022-10-13T05:23:55;96029.84;;;13.10;100.00
9521;BME280;4798;41.574;23.734;2022-10-13T05:26:25;96035.69;;;13.32;100.00
9521;BME280;4798;41.574;23.734;2022-10-13T05:28:55;96039.94;;;13.38;100.00
9521;BME280;4798;41.574;23.734;2022-10-13T05:31:24;96039.38;;;13.46;100.00
9521;BME280;4798;41.574;23.734;2022-10-13T05:33:54;96046.81;;;12.63;100.00
9521;BME280;4798;41.574;23.734;2022-10-13T05:36:25;96044.13;;;12.48;100.00
9521;BME280;4798;41.574;23.734;2022-10-13T05:38:58;96045.00;;;12.89;100.00
9521;BME280;4798;41.574;23.734;2022-10-13T05:41:27;96001.63;;;12.84;100.00
9521;BME280;4798;41.574;23.734;2022-10-13T05:43:59;96051.69;;;13.07;100.00
9521;BME280;4798;41.574;23.734;2022-10-13T05:46:28;95972.84;;;12.20;100.00
9521;BME280;4798;41.574;23.734;2022-10-13T05:48:57;96061.47;;;13.52;100.00
9521;BME280;4798;41.574;23.734;2022-10-13T05:51:29;96061.44;;;13.72;100.00
9521;BME280;4798;41.574;23.734;2022-10-13T05:54:02;96063.59;;;12.69;100.00
9521;BME280;4798;41.574;23.734;2022-10-13T05:56:34;96018.19;;;11.88;100.00
9521;BME280;4798;41.574;23.734;2022-10-13T05:59:07;96063.06;;;11.90;100.00
9521;BME280;4798;41.574;23.734;2022-10-13T06:01:39;96068.16;;;11.96;100.00
9521;BME280;4798;41.574;23.734;2022-10-13T06:04:09;96065.81;;;12.10;100.00
9521;BME280;4798;41.574;23.734;2022-10-13T06:06:40;96045.47;;;12.46;100.00
9521;BME280;4798;41.574;23.734;2022-10-13T06:09:09;96059.59;;;12.61;100.00
9521;BME280;4798;41.574;23.734;2022-10-13T06:11:37;95869.72;;;12.32;100.00
9521;BME280;4798;41.574;23.734;2022-10-13T06:14:05;96060.44;;;13.38;100.00
9521;BME280;4798;41.574;23.734;2022-10-13T06:16:34;96030.94;;;14.08;100.00
9521;BME280;4798;41.574;23.734;2022-10-13T06:19:03;96057.34;;;15.02;94.11
9521;BME280;4798;41.574;23.734;2022-10-13T06:21:33;96067.34;;;15.54;88.99
9521;BME280;4798;41.574;23.734;2022-10-13T06:24:04;96059.19;;;15.93;85.26
9521;BME280;4798;41.574;23.734;2022-10-13T06:26:32;96067.19;;;16.17;82.56
9521;BME280;4798;41.574;23.734;2022-10-13T06:29:00;96059.00;;;15.61;83.69
9521;BME280;4798;41.574;23.734;2022-10-13T06:31:29;96067.13;;;15.46;82.77
9521;BME280;4798;41.574;23.734;2022-10-13T06:33:57;96066.91;;;15.08;85.54
9521;BME280;4798;41.574;23.734;2022-10-13T06:36:26;96066.34;;;15.11;85.49
9521;BME280;4798;41.574;23.734;2022-10-13T06:38:55;95995.91;;;14.25;87.74
9521;BME280;4798;41.574;23.734;2022-10-13T06:41:24;96065.66;;;14.57;90.05
9521;BME280;4798;41.574;23.734;2022-10-13T06:43:53;96061.81;;;14.24;91.52
9521;BME280;4798;41.574;23.734;2022-10-13T06:46:21;96063.66;;;14.78;90.63
9521;BME280;4798;41.574;23.734;2022-10-13T06:48:50;96065.94;;;15.62;86.25
9521;BME280;4798;41.574;23.734;2022-10-13T06:51:18;96058.66;;;15.67;83.50
9521;BME280;4798;41.574;23.734;2022-10-13T06:53:46;96045.47;;;16.00;82.75
9521;BME280;4798;41.574;23.734;2022-10-13T06:56:15;96049.88;;;16.57;81.20
9521;BME280;4798;41.574;23.734;2022-10-13T06:58:44;96056.22;;;16.98;77.83
9521;BME280;4798;41.574;23.734;2022-10-13T07:01:14;96059.13;;;16.83;77.83
9521;BME280;4798;41.574;23.734;2022-10-13T07:03:42;96037.56;;;16.32;76.97
9521;BME280;4798;41.574;23.734;2022-10-13T07:06:10;96061.16;;;16.54;76.30
9521;BME280;4798;41.574;23.734;2022-10-13T07:08:39;96050.44;;;16.91;75.29
9521;BME280;4798;41.574;23.734;2022-10-13T07:11:08;96003.19;;;16.63;73.63
9521;BME280;4798;41.574;23.734;2022-10-13T07:13:42;96033.56;;;16.90;75.04
9521;BME280;4798;41.574;23.734;2022-10-13T07:16:14;96039.50;;;17.06;73.44
9521;BME280;4798;41.574;23.734;2022-10-13T07:18:43;96053.38;;;17.08;71.50
9521;BME280;4798;41.574;23.734;2022-10-13T07:21:11;96053.66;;;17.25;71.68
9521;BME280;4798;41.574;23.734;2022-10-13T07:23:39;96010.66;;;16.66;71.62
9521;BME280;4798;41.574;23.734;2022-10-13T07:26:08;96050.19;;;16.08;73.44
9521;BME280;4798;41.574;23.734;2022-10-13T07:28:37;96037.25;;;16.15;73.85
9521;BME280;4798;41.574;23.734;2022-10-13T07:31:07;95971.47;;;15.95;73.80
9521;BME280;4798;41.574;23.734;2022-10-13T07:33:39;96037.81;;;15.93;74.59
9521;BME280;4798;41.574;23.734;2022-10-13T07:36:08;96037.34;;;16.10;74.41
9521;BME280;4798;41.574;23.734;2022-10-13T07:38:37;96039.66;;;16.59;73.55
9521;BME280;4798;41.574;23.734;2022-10-13T07:41:07;96036.47;;;17.26;72.52
9521;BME280;4798;41.574;23.734;2022-10-13T07:43:36;96034.03;;;17.89;70.06
9521;BME280;4798;41.574;23.734;2022-10-13T07:46:05;96024.00;;;17.67;69.14
9521;BME280;4798;41.574;23.734;2022-10-13T07:48:34;96022.16;;;17.49;69.50
9521;BME280;4798;41.574;23.734;2022-10-13T07:51:05;96023.69;;;17.96;66.11
9521;BME280;4798;41.574;23.734;2022-10-13T07:53:34;96017.03;;;18.21;65.45
9521;BME280;4798;41.574;23.734;2022-10-13T07:56:05;96015.88;;;17.40;64.65
9521;BME280;4798;41.574;23.734;2022-10-13T07:58:36;96006.50;;;17.24;64.11
9521;BME280;4798;41.574;23.734;2022-10-13T08:01:05;96007.00;;;17.58;63.25
9521;BME280;4798;41.574;23.734;2022-10-13T08:03:33;95997.28;;;17.90;61.79
9521;BME280;4798;41.574;23.734;2022-10-13T08:06:05;95998.28;;;17.53;61.15
9521;BME280;4798;41.574;23.734;2022-10-13T08:08:34;95998.47;;;18.11;61.35
9521;BME280;4798;41.574;23.734;2022-10-13T08:11:04;96006.78;;;18.23;60.02
9521;BME280;4798;41.574;23.734;2022-10-13T08:13:33;96002.53;;;19.16;59.61
9521;BME280;4798;41.574;23.734;2022-10-13T08:16:01;96000.09;;;19.28;59.00
9521;BME280;4798;41.574;23.734;2022-10-13T08:18:30;95999.09;;;19.68;56.65
9521;BME280;4798;41.574;23.734;2022-10-13T08:21:00;95994.09;;;19.92;56.51
9521;BME280;4798;41.574;23.734;2022-10-13T08:23:50;95989.97;;;20.25;54.37
9521;BME280;4798;41.574;23.734;2022-10-13T08:26:20;95924.19;;;19.53;52.99
9521;BME280;4798;41.574;23.734;2022-10-13T08:28:49;95991.88;;;20.59;51.98
9521;BME280;4798;41.574;23.734;2022-10-13T08:31:38;95988.84;;;20.26;51.40
9521;BME280;4798;41.574;23.734;2022-10-13T08:34:07;95969.09;;;20.48;50.87
9521;BME280;4798;41.574;23.734;2022-10-13T08:36:35;95974.28;;;21.77;49.88
9521;BME280;4798;41.574;23.734;2022-10-13T08:39:05;95984.63;;;21.75;50.98
9521;BME280;4798;41.574;23.734;2022-10-13T08:41:37;95974.94;;;20.67;50.51
9521;BME280;4798;41.574;23.734;2022-10-13T08:44:09;95975.09;;;20.62;51.54
9521;BME280;4798;41.574;23.734;2022-10-13T08:47:08;95964.16;;;21.10;49.86
9521;BME280;4798;41.574;23.734;2022-10-13T08:49:39;95974.66;;;20.69;51.61
9521;BME280;4798;41.574;23.734;2022-10-13T08:52:12;95982.56;;;20.74;52.66
9521;BME280;4798;41.574;23.734;2022-10-13T08:54:46;95977.97;;;21.17;51.65
9521;BME280;4798;41.574;23.734;2022-10-13T08:57:14;95974.31;;;21.13;52.15
9521;BME280;4798;41.574;23.734;2022-10-13T08:59:43;95972.09;;;20.81;51.86
9521;BME280;4798;41.574;23.734;2022-10-13T09:02:12;95971.63;;;20.79;52.91
9521;BME280;4798;41.574;23.734;2022-10-13T09:04:45;95971.53;;;20.10;51.35
9521;BME280;4798;41.574;23.734;2022-10-13T09:07:18;95967.06;;;19.97;51.80
9521;BME280;4798;41.574;23.734;2022-10-13T09:09:51;95970.00;;;20.26;51.69
9521;BME280;4798;41.574;23.734;2022-10-13T09:12:20;95976.22;;;20.53;51.23
9521;BME280;4798;41.574;23.734;2022-10-13T09:14:57;95948.78;;;20.25;50.72
9521;BME280;4798;41.574;23.734;2022-10-13T09:17:28;95962.28;;;20.68;48.99
9521;BME280;4798;41.574;23.734;2022-10-13T09:19:59;95785.72;;;20.79;48.04
9521;BME280;4798;41.574;23.734;2022-10-13T09:22:30;95940.78;;;22.16;47.02
9521;BME280;4798;41.574;23.734;2022-10-13T09:25:19;95949.53;;;22.12;47.01
9521;BME280;4798;41.574;23.734;2022-10-13T09:27:49;95796.63;;;21.87;46.99
9521;BME280;4798;41.574;23.734;2022-10-13T09:30:29;95938.69;;;23.49;44.62
9521;BME280;4798;41.574;23.734;2022-10-13T09:33:18;95945.41;;;22.98;44.32
9521;BME280;4798;41.574;23.734;2022-10-13T09:35:49;95935.03;;;23.32;44.50
9521;BME280;4798;41.574;23.734;2022-10-13T09:38:33;95932.63;;;22.86;45.11
9521;BME280;4798;41.574;23.734;2022-10-13T09:41:05;95922.03;;;22.81;45.57
9521;BME280;4798;41.574;23.734;2022-10-13T09:43:41;95927.38;;;22.69;45.08
9521;BME280;4798;41.574;23.734;2022-10-13T09:46:19;95918.56;;;23.25;45.17
9521;BME280;4798;41.574;23.734;2022-10-13T09:48:50;95906.00;;;24.26;42.07
9521;BME280;4798;41.574;23.734;2022-10-13T09:51:29;95868.00;;;23.86;42.22
9521;BME280;4798;41.574;23.734;2022-10-13T09:53:59;95894.16;;;23.94;42.23
9521;BME280;4798;41.574;23.734;2022-10-13T09:56:35;95893.59;;;24.93;41.38
9521;BME280;4798;41.574;23.734;2022-10-13T09:59:13;95898.19;;;24.37;40.31
9521;BME280;4798;41.574;23.734;2022-10-13T10:01:46;95889.63;;;24.35;39.24
9521;BME280;4798;41.574;23.734;2022-10-13T10:04:19;95884.50;;;24.85;39.65
9521;BME280;4798;41.574;23.734;2022-10-13T10:06:49;95885.44;;;26.68;38.22
9521;BME280;4798;41.574;23.734;2022-10-13T10:09:33;95852.22;;;26.21;36.57
9521;BME280;4798;41.574;23.734;2022-10-13T10:12:05;95865.19;;;27.27;36.30
9521;BME280;4798;41.574;23.734;2022-10-13T10:14:36;95856.31;;;26.88;35.54
9521;BME280;4798;41.574;23.734;2022-10-13T10:17:14;95841.94;;;27.33;36.91
9521;BME280;4798;41.574;23.734;2022-10-13T10:19:51;95855.50;;;28.57;35.06
9521;BME280;4798;41.574;23.734;2022-10-13T10:22:32;95744.78;;;27.59;33.69
9521;BME280;4798;41.574;23.734;2022-10-13T10:25:11;95834.94;;;29.33;35.47
9521;BME280;4798;41.574;23.734;2022-10-13T10:27:50;95828.34;;;29.34;33.71
9521;BME280;4798;41.574;23.734;2022-10-13T10:30:20;95675.16;;;26.64;34.01
9521;BME280;4798;41.574;23.734;2022-10-13T10:32:53;95722.16;;;26.42;35.74
9521;BME280;4798;41.574;23.734;2022-10-13T10:35:29;95810.22;;;25.83;36.92
9521;BME280;4798;41.574;23.734;2022-10-13T10:38:11;95828.56;;;26.06;35.97
9521;BME280;4798;41.574;23.734;2022-10-13T10:40:49;95826.38;;;25.30;36.91
9521;BME280;4798;41.574;23.734;2022-10-13T10:43:34;95824.63;;;25.53;35.02
9521;BME280;4798;41.574;23.734;2022-10-13T10:46:12;95738.41;;;26.19;35.59
9521;BME280;4798;41.574;23.734;2022-10-13T10:48:43;95805.06;;;25.63;33.30
9521;BME280;4798;41.574;23.734;2022-10-13T10:51:13;95813.59;;;25.46;35.46
9521;BME280;4798;41.574;23.734;2022-10-13T10:53:51;95804.09;;;25.71;33.87
9521;BME280;4798;41.574;23.734;2022-10-13T10:56:28;95798.72;;;25.24;34.94
9521;BME280;4798;41.574;23.734;2022-10-13T10:59:06;95785.84;;;25.87;34.83
9521;BME280;4798;41.574;23.734;2022-10-13T11:01:42;95783.13;;;27.25;34.18
9521;BME280;4798;41.574;23.734;2022-10-13T11:04:32;95775.97;;;26.75;33.32
9521;BME280;4798;41.574;23.734;2022-10-13T11:07:02;95779.34;;;26.87;32.12
9521;BME280;4798;41.574;23.734;2022-10-13T11:10:03;95772.31;;;28.07;32.69
9521;BME280;4798;41.574;23.734;2022-10-13T11:15:49;95763.72;;;28.68;32.52
9521;BME280;4798;41.574;23.734;2022-10-13T11:21:42;95736.13;;;27.54;33.18
9521;BME280;4798;41.574;23.734;2022-10-13T11:24:45;95760.66;;;27.31;34.05
9521;BME280;4798;41.574;23.734;2022-10-13T11:27:22;95739.19;;;26.58;33.31
9521;BME280;4798;41.574;23.734;2022-10-13T11:29:54;95753.56;;;26.39;33.80
9521;BME280;4798;41.574;23.734;2022-10-13T11:32:45;95738.25;;;26.31;33.55
9521;BME280;4798;41.574;23.734;2022-10-13T11:35:26;95738.72;;;26.14;34.38
9521;BME280;4798;41.574;23.734;2022-10-13T11:38:09;95737.78;;;25.21;34.35
9521;BME280;4798;41.574;23.734;2022-10-13T11:41:00;95744.94;;;24.51;33.83
9521;BME280;4798;41.574;23.734;2022-10-13T11:43:40;95746.31;;;25.04;35.57
9521;BME280;4798;41.574;23.734;2022-10-13T11:46:23;95740.38;;;25.65;35.47
9521;BME280;4798;41.574;23.734;2022-10-13T11:49:13;95736.59;;;25.03;34.21
9521;BME280;4798;41.574;23.734;2022-10-13T11:52:07;95722.50;;;24.23;34.81
9521;BME280;4798;41.574;23.734;2022-10-13T11:54:45;95725.47;;;24.34;33.82
9521;BME280;4798;41.574;23.734;2022-10-13T11:57:25;95734.19;;;23.60;32.71
9521;BME280;4798;41.574;23.734;2022-10-13T12:00:00;95727.13;;;23.71;32.81
9521;BME280;4798;41.574;23.734;2022-10-13T12:02:28;95720.09;;;23.54;32.34
9521;BME280;4798;41.574;23.734;2022-10-13T12:05:18;95679.47;;;23.66;32.78
9521;BME280;4798;41.574;23.734;2022-10-13T12:07:49;95715.75;;;23.77;33.22
9521;BME280;4798;41.574;23.734;2022-10-13T12:10:22;95725.84;;;23.92;33.09
9521;BME280;4798;41.574;23.734;2022-10-13T12:12:52;95722.47;;;23.44;34.11
9521;BME280;4798;41.574;23.734;2022-10-13T12:15:32;95644.94;;;23.23;33.98
9521;BME280;4798;41.574;23.734;2022-10-13T12:18:21;95709.78;;;23.72;35.25
9521;BME280;4798;41.574;23.734;2022-10-13T12:20:57;95653.50;;;22.53;36.13
9521;BME280;4798;41.574;23.734;2022-10-13T12:23:26;95720.88;;;23.18;35.58
9521;BME280;4798;41.574;23.734;2022-10-13T12:25:56;95713.84;;;23.78;37.75
9521;BME280;4798;41.574;23.734;2022-10-13T12:28:27;95710.75;;;23.15;35.43
9521;BME280;4798;41.574;23.734;2022-10-13T12:30:59;95718.09;;;23.39;36.15
9521;BME280;4798;41.574;23.734;2022-10-13T12:33:30;95664.81;;;22.91;36.43
9521;BME280;4798;41.574;23.734;2022-10-13T12:36:15;95710.06;;;23.55;36.25
9521;BME280;4798;41.574;23.734;2022-10-13T12:38:47;95642.19;;;22.84;36.65
9521;BME280;4798;41.574;23.734;2022-10-13T12:41:18;95709.72;;;23.32;36.25
9521;BME280;4798;41.574;23.734;2022-10-13T12:43:50;95706.69;;;22.73;37.34
9521;BME280;4798;41.574;23.734;2022-10-13T12:46:34;95713.16;;;22.60;37.19
9521;BME280;4798;41.574;23.734;2022-10-13T12:49:03;95713.94;;;22.36;37.74
9521;BME280;4798;41.574;23.734;2022-10-13T12:51:35;95685.94;;;22.08;38.33
9521;BME280;4798;41.574;23.734;2022-10-13T12:54:07;95708.75;;;22.31;37.22
9521;BME280;4798;41.574;23.734;2022-10-13T12:56:36;95711.44;;;21.78;37.98
9521;BME280;4798;41.574;23.734;2022-10-13T12:59:15;95712.91;;;21.96;37.89
9521;BME280;4798;41.574;23.734;2022-10-13T13:01:44;95710.97;;;21.55;38.20
9521;BME280;4798;41.574;23.734;2022-10-13T13:04:31;95705.84;;;21.41;39.31
9521;BME280;4798;41.574;23.734;2022-10-13T13:07:24;95702.91;;;21.26;40.64
9521;BME280;4798;41.574;23.734;2022-10-13T13:10:00;95697.78;;;21.33;40.14
9521;BME280;4798;41.574;23.734;2022-10-13T13:12:29;95699.03;;;21.35;39.96
9521;BME280;4798;41.574;23.734;2022-10-13T13:15:16;95698.06;;;21.61;39.35
9521;BME280;4798;41.574;23.734;2022-10-13T13:17:45;95701.03;;;21.68;40.02
9521;BME280;4798;41.574;23.734;2022-10-13T13:20:30;95699.97;;;22.01;39.73
9521;BME280;4798;41.574;23.734;2022-10-13T13:23:01;95702.03;;;21.42;39.28
9521;BME280;4798;41.574;23.734;2022-10-13T13:25:29;95703.59;;;21.43;39.66
9521;BME280;4798;41.574;23.734;2022-10-13T13:27:57;95708.13;;;21.31;40.23
9521;BME280;4798;41.574;23.734;2022-10-13T13:30:25;95693.34;;;21.58;41.60
9521;BME280;4798;41.574;23.734;2022-10-13T13:32:54;95693.06;;;21.92;40.01
9521;BME280;4798;41.574;23.734;2022-10-13T13:35:22;95697.41;;;22.05;40.31
9521;BME280;4798;41.574;23.734;2022-10-13T13:37:51;95698.31;;;22.09;39.59
9521;BME280;4798;41.574;23.734;2022-10-13T13:40:23;95611.31;;;21.38;39.43